^^
Your Local Weather - Clay, NY Station Historical Data
Daily Summary for May 24, 2017 Units:  English    Metric   Both
« Previous Day
Next Day »
Daily Weekly Monthly Yearly Custom
  High: Low: Average:
Temperature: 76.8 °F 51.0 °F 63.8 °F
Dew Point: 57.3 °F 45.2 °F 50.9 °F
Humidity: 93% 34% 67%
Wind Speed: 6.0mph 0.0mph 1.4mph
Wind Gust: 12.0mph - -
Wind- - ESE
Pressure: 29.74 in 29.62 in -
Precipitation: 0.00 in    
Historical Graphs
 
 
Tabular Data for May 24, 2017
Time Temperature Dew Point Pressure Wind Wind Speed Wind Gust Humidity Rainfall Rate (Hourly) solar
00:02 54.5 °F 50.7 °F 29.74 in Calm     87% 0.00 in 0 W/m2
00:08 54.3 °F 50.5 °F 29.73 in Calm     87% 0.00 in 0 W/m2
00:14 54.1 °F 50.3 °F 29.73 in Calm     87% 0.00 in 0 W/m2
00:22 53.9 °F 50.4 °F 29.73 in Calm     88% 0.00 in 0 W/m2
00:28 53.9 °F 50.4 °F 29.73 in Calm     88% 0.00 in 0 W/m2
00:34 53.9 °F 50.4 °F 29.72 in Calm     88% 0.00 in 0 W/m2
00:40 53.7 °F 50.2 °F 29.72 in Calm     88% 0.00 in 0 W/m2
00:46 53.4 °F 49.9 °F 29.72 in Calm     88% 0.00 in 0 W/m2
00:52 53.3 °F 50.1 °F 29.72 in Calm     89% 0.00 in 0 W/m2
00:58 53.1 °F 49.9 °F 29.72 in Calm     89% 0.00 in 0 W/m2
01:04 52.9 °F 49.7 °F 29.72 in Calm     89% 0.00 in 0 W/m2
01:10 53.0 °F 49.8 °F 29.72 in Calm     89% 0.00 in 0 W/m2
01:16 53.0 °F 50.1 °F 29.72 in Calm     90% 0.00 in 0 W/m2
01:22 53.1 °F 50.2 °F 29.71 in Calm     90% 0.00 in 0 W/m2
01:28 53.2 °F 50.3 °F 29.71 in Calm     90% 0.00 in 0 W/m2
01:34 53.1 °F 50.2 °F 29.70 in Calm     90% 0.00 in 0 W/m2
01:40 53.0 °F 50.1 °F 29.71 in Calm     90% 0.00 in 0 W/m2
01:46 52.8 °F 49.9 °F 29.70 in Calm     90% 0.00 in 0 W/m2
01:52 52.5 °F 49.9 °F 29.70 in Calm     91% 0.00 in 0 W/m2
01:58 52.5 °F 49.9 °F 29.70 in Calm     91% 0.00 in 0 W/m2
02:04 52.6 °F 50.0 °F 29.70 in Calm     91% 0.00 in 0 W/m2
02:10 52.9 °F 50.3 °F 29.70 in Calm     91% 0.00 in 0 W/m2
02:16 52.9 °F 50.3 °F 29.70 in Calm     91% 0.00 in 0 W/m2
02:22 53.0 °F 50.4 °F 29.70 in Calm     91% 0.00 in 0 W/m2
02:28 52.8 °F 50.2 °F 29.70 in Calm     91% 0.00 in 0 W/m2
02:34 52.6 °F 50.0 °F 29.70 in Calm     91% 0.00 in 0 W/m2
02:40 52.4 °F 49.8 °F 29.70 in Calm     91% 0.00 in 0 W/m2
02:46 52.2 °F 49.7 °F 29.69 in Calm     91% 0.00 in 0 W/m2
02:52 52.0 °F 49.5 °F 29.69 in Calm     91% 0.00 in 0 W/m2
02:58 51.9 °F 49.4 °F 29.69 in Calm     91% 0.00 in 0 W/m2
03:04 51.9 °F 49.4 °F 29.69 in Calm     91% 0.00 in 0 W/m2
03:10 52.0 °F 49.7 °F 29.69 in Calm     92% 0.00 in 0 W/m2
03:16 52.0 °F 49.7 °F 29.69 in Calm     92% 0.00 in 0 W/m2
03:22 52.1 °F 49.8 °F 29.69 in Calm     92% 0.00 in 0 W/m2
03:28 52.2 °F 49.9 °F 29.69 in Calm   1.0 mph 92% 0.00 in 0 W/m2
03:34 52.1 °F 49.8 °F 29.69 in Calm     92% 0.00 in 0 W/m2
03:40 52.0 °F 49.7 °F 29.69 in Calm     92% 0.00 in 0 W/m2
03:46 52.0 °F 49.7 °F 29.69 in Calm     92% 0.00 in 0 W/m2
03:52 52.1 °F 49.8 °F 29.69 in Calm     92% 0.00 in 0 W/m2
03:58 52.1 °F 49.8 °F 29.69 in Calm     92% 0.00 in 0 W/m2
04:04 51.9 °F 49.6 °F 29.69 in Calm     92% 0.00 in 0 W/m2
04:10 51.8 °F 49.5 °F 29.69 in Calm     92% 0.00 in 0 W/m2
04:16 52.0 °F 49.7 °F 29.70 in Calm     92% 0.00 in 0 W/m2
04:22 52.0 °F 49.7 °F 29.69 in Calm     92% 0.00 in 0 W/m2
04:28 51.9 °F 49.6 °F 29.69 in Calm     92% 0.00 in 0 W/m2
04:34 51.8 °F 49.5 °F 29.70 in Calm     92% 0.00 in 0 W/m2
04:40 51.8 °F 49.5 °F 29.69 in Calm     92% 0.00 in 0 W/m2
04:46 51.8 °F 49.5 °F 29.69 in Calm     92% 0.00 in 0 W/m2
04:52 51.8 °F 49.5 °F 29.69 in Calm     92% 0.00 in 0 W/m2
04:58 51.7 °F 49.5 °F 29.70 in Calm   1.0 mph 92% 0.00 in 0 W/m2
05:04 51.6 °F 49.4 °F 29.69 in Calm     92% 0.00 in 0 W/m2
05:10 51.4 °F 49.2 °F 29.69 in Calm     92% 0.00 in 0 W/m2
05:16 51.2 °F 49.0 °F 29.69 in Calm   1.0 mph 92% 0.00 in 0 W/m2
05:22 51.2 °F 49.0 °F 29.69 in Calm   2.0 mph 92% 0.00 in 0 W/m2
05:28 51.1 °F 48.9 °F 29.69 in Calm   2.0 mph 92% 0.00 in 0 W/m2
05:34 51.0 °F 48.8 °F 29.69 in Calm   1.0 mph 92% 0.00 in 0 W/m2
05:40 51.0 °F 48.8 °F 29.69 in NE 1.0 mph 2.0 mph 92% 0.00 in 0 W/m2
05:46 51.0 °F 48.8 °F 29.69 in NE 1.0 mph 2.0 mph 92% 0.00 in 7 W/m2
05:52 51.0 °F 48.8 °F 29.69 in Calm   1.0 mph 92% 0.00 in 11 W/m2
05:58 51.1 °F 48.9 °F 29.69 in Calm   1.0 mph 92% 0.00 in 16 W/m2
06:06 51.1 °F 48.9 °F 29.69 in Calm     92% 0.00 in 21 W/m2
06:12 51.0 °F 48.8 °F 29.70 in Calm     92% 0.00 in 25 W/m2
06:18 51.0 °F 48.8 °F 29.70 in Calm     92% 0.00 in 30 W/m2
06:24 51.1 °F 49.1 °F 29.70 in Calm     93% 0.00 in 37 W/m2
06:30 51.2 °F 49.2 °F 29.70 in Calm     93% 0.00 in 37 W/m2
06:36 51.5 °F 49.5 °F 29.70 in Calm     93% 0.00 in 46 W/m2
06:42 51.8 °F 49.8 °F 29.70 in Calm     93% 0.00 in 60 W/m2
06:48 52.1 °F 50.1 °F 29.70 in Calm   1.0 mph 93% 0.00 in 77 W/m2
06:54 52.7 °F 50.7 °F 29.70 in Calm   1.0 mph 93% 0.00 in 98 W/m2
07:00 53.1 °F 51.1 °F 29.70 in Calm   1.0 mph 93% 0.00 in 104 W/m2
07:06 53.5 °F 51.5 °F 29.70 in Calm   1.0 mph 93% 0.00 in 107 W/m2
07:12 53.9 °F 51.9 °F 29.70 in Calm   2.0 mph 93% 0.00 in 113 W/m2
07:18 54.2 °F 52.2 °F 29.70 in Calm   2.0 mph 93% 0.00 in 125 W/m2
07:24 54.5 °F 52.2 °F 29.70 in NE 1.0 mph 1.0 mph 92% 0.00 in 137 W/m2
07:30 54.9 °F 52.6 °F 29.70 in NE 1.0 mph 1.0 mph 92% 0.00 in 163 W/m2
07:36 55.4 °F 53.1 °F 29.70 in Calm   1.0 mph 92% 0.00 in 149 W/m2
07:42 55.7 °F 52.8 °F 29.70 in Calm   2.0 mph 90% 0.00 in 160 W/m2
07:48 56.1 °F 52.9 °F 29.70 in NE 1.0 mph 2.0 mph 89% 0.00 in 165 W/m2
07:54 56.4 °F 52.6 °F 29.70 in Calm   1.0 mph 87% 0.00 in 185 W/m2
08:02 57.1 °F 53.0 °F 29.70 in NE 1.0 mph 1.0 mph 86% 0.00 in 220 W/m2
08:08 57.4 °F 53.2 °F 29.70 in NE 1.0 mph 4.0 mph 86% 0.00 in 197 W/m2
08:14 57.6 °F 53.1 °F 29.70 in NE 1.0 mph 1.0 mph 85% 0.00 in 135 W/m2
08:20 57.4 °F 52.3 °F 29.70 in NE 1.0 mph 1.0 mph 83% 0.00 in 128 W/m2
08:26 57.3 °F 52.2 °F 29.70 in ENE 1.0 mph 3.0 mph 83% 0.00 in 149 W/m2
08:32 57.4 °F 52.3 °F 29.70 in East 1.0 mph 3.0 mph 83% 0.00 in 221 W/m2
08:38 57.8 °F 52.7 °F 29.70 in ESE 2.0 mph 3.0 mph 83% 0.00 in 244 W/m2
08:44 58.1 °F 52.3 °F 29.70 in ESE 2.0 mph 2.0 mph 81% 0.00 in 204 W/m2
08:50 58.3 °F 52.2 °F 29.71 in ESE 1.0 mph 1.0 mph 80% 0.00 in 209 W/m2
08:56 58.6 °F 52.4 °F 29.71 in ESE 1.0 mph 1.0 mph 80% 0.00 in 211 W/m2
09:02 58.9 °F 52.7 °F 29.71 in ESE 1.0 mph 1.0 mph 80% 0.00 in 283 W/m2
09:08 59.4 °F 52.5 °F 29.71 in ESE 1.0 mph 2.0 mph 78% 0.00 in 272 W/m2
09:14 59.8 °F 52.2 °F 29.70 in ESE 1.0 mph 2.0 mph 76% 0.00 in 258 W/m2
09:20 60.0 °F 52.4 °F 29.70 in ESE 1.0 mph 2.0 mph 76% 0.00 in 265 W/m2
09:26 60.3 °F 52.7 °F 29.70 in ESE 1.0 mph 2.0 mph 76% 0.00 in 281 W/m2
09:32 60.7 °F 52.4 °F 29.70 in East 1.0 mph 1.0 mph 74% 0.00 in 299 W/m2
09:38 61.2 °F 53.2 °F 29.70 in Calm   2.0 mph 75% 0.00 in 290 W/m2
09:44 61.7 °F 53.0 °F 29.70 in ESE 1.0 mph 2.0 mph 73% 0.00 in 367 W/m2
09:50 62.1 °F 53.3 °F 29.70 in ESE 1.0 mph 1.0 mph 73% 0.00 in 492 W/m2
09:56 62.5 °F 53.0 °F 29.70 in ESE 2.0 mph 3.0 mph 71% 0.00 in 396 W/m2
10:02 63.2 °F 53.6 °F 29.70 in East 1.0 mph 5.0 mph 71% 0.00 in 529 W/m2
10:08 64.3 °F 54.7 °F 29.70 in East 1.0 mph 5.0 mph 71% 0.00 in 552 W/m2
10:14 64.9 °F 53.7 °F 29.70 in ESE 1.0 mph 3.0 mph 67% 0.00 in 545 W/m2
10:20 65.3 °F 52.8 °F 29.70 in East 1.0 mph 3.0 mph 64% 0.00 in 610 W/m2
10:26 65.4 °F 52.5 °F 29.70 in ENE 2.0 mph 5.0 mph 63% 0.00 in 731 W/m2
10:32 66.9 °F 53.9 °F 29.69 in SSE 2.0 mph 4.0 mph 63% 0.00 in 809 W/m2
10:38 68.1 °F 54.6 °F 29.69 in ENE 2.0 mph 4.0 mph 62% 0.00 in 854 W/m2
10:44 68.1 °F 52.3 °F 29.69 in ENE 3.0 mph 3.0 mph 57% 0.00 in 898 W/m2
10:50 67.8 °F 51.0 °F 29.69 in East 4.0 mph 4.0 mph 55% 0.00 in 464 W/m2
10:56 67.8 °F 49.5 °F 29.69 in NNE 4.0 mph 5.0 mph 52% 0.00 in 791 W/m2
11:02 68.4 °F 51.1 °F 29.69 in NNE 3.0 mph 4.0 mph 54% 0.00 in 691 W/m2
11:08 70.1 °F 51.7 °F 29.69 in East 2.0 mph 7.0 mph 52% 0.00 in 452 W/m2
11:14 69.6 °F 50.7 °F 29.68 in East 4.0 mph 6.0 mph 51% 0.00 in 1072 W/m2
11:20 69.6 °F 52.7 °F 29.68 in SE 4.0 mph 5.0 mph 55% 0.00 in 835 W/m2
11:26 69.9 °F 52.5 °F 29.68 in ENE 3.0 mph 5.0 mph 54% 0.00 in 1009 W/m2
11:32 70.5 °F 52.5 °F 29.68 in East 3.0 mph 6.0 mph 53% 0.00 in 942 W/m2
11:38 70.3 °F 52.9 °F 29.68 in NE 2.0 mph 6.0 mph 54% 0.00 in 900 W/m2
11:44 69.9 °F 53.5 °F 29.67 in NNE 3.0 mph 4.0 mph 56% 0.00 in 909 W/m2
11:50 70.3 °F 53.4 °F 29.67 in NE 3.0 mph 3.0 mph 55% 0.00 in 918 W/m2
11:56 70.8 °F 54.3 °F 29.67 in NE 3.0 mph 5.0 mph 56% 0.00 in 972 W/m2
12:02 71.5 °F 56.9 °F 29.67 in ENE 3.0 mph 3.0 mph 60% 0.00 in 946 W/m2
12:08 71.5 °F 55.9 °F 29.67 in SE 2.0 mph 4.0 mph 58% 0.00 in 925 W/m2
12:14 71.4 °F 55.9 °F 29.67 in ESE 3.0 mph 5.0 mph 58% 0.00 in 914 W/m2
12:20 71.5 °F 57.3 °F 29.66 in NE 3.0 mph 3.0 mph 61% 0.00 in 933 W/m2
12:26 71.3 °F 53.8 °F 29.66 in ENE 3.0 mph 3.0 mph 54% 0.00 in 912 W/m2
12:32 71.8 °F 55.7 °F 29.66 in East 4.0 mph 5.0 mph 57% 0.00 in 942 W/m2
12:38 72.2 °F 53.6 °F 29.66 in North 4.0 mph 7.0 mph 52% 0.00 in 940 W/m2
12:44 72.3 °F 55.2 °F 29.65 in NW 4.0 mph 5.0 mph 55% 0.00 in 949 W/m2
12:50 72.9 °F 55.3 °F 29.65 in SSE 5.0 mph 5.0 mph 54% 0.00 in 960 W/m2
12:56 73.2 °F 54.5 °F 29.65 in NNE 5.0 mph 9.0 mph 52% 0.00 in 1025 W/m2
13:02 73.5 °F 53.7 °F 29.65 in NE 5.0 mph 7.0 mph 50% 0.00 in 1030 W/m2
13:08 73.8 °F 54.5 °F 29.65 in NE 5.0 mph 7.0 mph 51% 0.00 in 1021 W/m2
13:14 74.0 °F 53.1 °F 29.65 in ENE 4.0 mph 5.0 mph 48% 0.00 in 949 W/m2
13:20 74.1 °F 54.8 °F 29.65 in NNE 4.0 mph 4.0 mph 51% 0.00 in 963 W/m2
13:26 74.2 °F 54.9 °F 29.65 in NNW 4.0 mph 5.0 mph 51% 0.00 in 981 W/m2
13:32 74.8 °F 51.4 °F 29.65 in ENE 4.0 mph 10.0 mph 44% 0.00 in 872 W/m2
13:38 75.1 °F 48.4 °F 29.65 in SE 3.0 mph 10.0 mph 39% 0.00 in 679 W/m2
13:44 75.3 °F 46.5 °F 29.64 in SE 3.0 mph 11.0 mph 36% 0.00 in 740 W/m2
13:50 75.4 °F 49.4 °F 29.64 in South 4.0 mph 8.0 mph 40% 0.00 in 861 W/m2
13:56 75.1 °F 49.1 °F 29.64 in East 4.0 mph 8.0 mph 40% 0.00 in 649 W/m2
14:02 75.6 °F 47.5 °F 29.64 in SE 4.0 mph 9.0 mph 37% 0.00 in 555 W/m2
14:08 75.0 °F 47.7 °F 29.64 in SE 5.0 mph 9.0 mph 38% 0.00 in 568 W/m2
14:14 75.1 °F 47.0 °F 29.64 in SE 4.0 mph 6.0 mph 37% 0.00 in 628 W/m2
14:20 75.6 °F 45.2 °F 29.64 in SE 5.0 mph 12.0 mph 34% 0.00 in 765 W/m2
14:26 75.5 °F 46.7 °F 29.64 in South 6.0 mph 12.0 mph 36% 0.00 in 668 W/m2
14:32 75.5 °F 46.7 °F 29.63 in ESE 6.0 mph 7.0 mph 36% 0.00 in 570 W/m2
14:38 75.7 °F 48.3 °F 29.63 in SE 3.0 mph 7.0 mph 38% 0.00 in 599 W/m2
14:44 75.3 °F 47.2 °F 29.63 in East 4.0 mph 9.0 mph 37% 0.00 in 513 W/m2
14:50 75.4 °F 48.0 °F 29.63 in SSE 5.0 mph 5.0 mph 38% 0.00 in 686 W/m2
14:56 75.7 °F 46.8 °F 29.63 in ENE 5.0 mph 9.0 mph 36% 0.00 in 654 W/m2
15:02 76.0 °F 49.9 °F 29.63 in SE 4.0 mph 5.0 mph 40% 0.00 in 712 W/m2
15:08 76.2 °F 50.8 °F 29.63 in SSE 4.0 mph 6.0 mph 41% 0.00 in 585 W/m2
15:14 75.7 °F 51.0 °F 29.63 in SE 4.0 mph 7.0 mph 42% 0.00 in 524 W/m2
15:20 76.0 °F 47.8 °F 29.63 in ESE 4.0 mph 4.0 mph 37% 0.00 in 638 W/m2
15:26 75.9 °F 47.0 °F 29.63 in SE 5.0 mph 10.0 mph 36% 0.00 in 596 W/m2
15:32 76.4 °F 48.2 °F 29.64 in East 4.0 mph 5.0 mph 37% 0.00 in 568 W/m2
15:38 76.0 °F 48.6 °F 29.64 in East 4.0 mph 6.0 mph 38% 0.00 in 462 W/m2
15:44 75.8 °F 46.9 °F 29.64 in SE 4.0 mph 7.0 mph 36% 0.00 in 399 W/m2
15:50 75.7 °F 48.3 °F 29.64 in SSE 4.0 mph 8.0 mph 38% 0.00 in 677 W/m2
15:56 76.3 °F 51.5 °F 29.64 in SE 4.0 mph 8.0 mph 42% 0.00 in 309 W/m2
16:02 75.9 °F 48.5 °F 29.64 in East 4.0 mph 4.0 mph 38% 0.00 in 367 W/m2
16:08 75.4 °F 48.0 °F 29.64 in SE 4.0 mph 7.0 mph 38% 0.00 in 304 W/m2
16:14 75.5 °F 48.8 °F 29.64 in SE 3.0 mph 3.0 mph 39% 0.00 in 323 W/m2
16:20 75.7 °F 49.0 °F 29.63 in SE 2.0 mph 2.0 mph 39% 0.00 in 374 W/m2
16:26 76.4 °F 49.6 °F 29.63 in SSE 1.0 mph 5.0 mph 39% 0.00 in 670 W/m2
16:32 76.8 °F 49.3 °F 29.63 in ENE 2.0 mph 4.0 mph 38% 0.00 in 264 W/m2
16:38 75.9 °F 47.0 °F 29.63 in ENE 3.0 mph 4.0 mph 36% 0.00 in 236 W/m2
16:44 75.6 °F 50.2 °F 29.62 in SSE 2.0 mph 4.0 mph 41% 0.00 in 239 W/m2
16:50 75.4 °F 46.6 °F 29.62 in SSE 1.0 mph 5.0 mph 36% 0.00 in 262 W/m2
16:56 75.5 °F 52.1 °F 29.62 in NE 1.0 mph 6.0 mph 44% 0.00 in 232 W/m2
17:02 75.0 °F 51.0 °F 29.62 in NE 1.0 mph 3.0 mph 43% 0.00 in 162 W/m2
17:08 74.4 °F 52.9 °F 29.62 in ENE 1.0 mph 4.0 mph 47% 0.00 in 188 W/m2
17:14 74.2 °F 51.5 °F 29.62 in NE 1.0 mph 6.0 mph 45% 0.00 in 144 W/m2
17:20 74.2 °F 52.7 °F 29.62 in NE 3.0 mph 3.0 mph 47% 0.00 in 102 W/m2
17:26 74.2 °F 51.5 °F 29.63 in ENE 4.0 mph 4.0 mph 45% 0.00 in 95 W/m2
17:32 73.7 °F 51.6 °F 29.63 in ENE 2.0 mph 6.0 mph 46% 0.00 in 97 W/m2
17:38 73.4 °F 50.8 °F 29.63 in NE 3.0 mph 6.0 mph 45% 0.00 in 90 W/m2
17:44 73.4 °F 51.4 °F 29.63 in ENE 3.0 mph 3.0 mph 46% 0.00 in 134 W/m2
17:50 73.4 °F 51.4 °F 29.63 in East 2.0 mph 7.0 mph 46% 0.00 in 100 W/m2
17:56 73.4 °F 50.8 °F 29.63 in East 2.0 mph 7.0 mph 45% 0.00 in 102 W/m2
18:02 73.4 °F 52.5 °F 29.63 in ENE 2.0 mph 4.0 mph 48% 0.00 in 86 W/m2
18:08 73.3 °F 50.7 °F 29.64 in SE 2.0 mph 5.0 mph 45% 0.00 in 67 W/m2
18:14 73.1 °F 51.1 °F 29.64 in SSE 1.0 mph 2.0 mph 46% 0.00 in 79 W/m2
18:20 73.0 °F 51.6 °F 29.64 in SSE 2.0 mph 2.0 mph 47% 0.00 in 51 W/m2
18:26 72.8 °F 51.4 °F 29.64 in SSE 2.0 mph 3.0 mph 47% 0.00 in 51 W/m2
18:32 73.1 °F 51.1 °F 29.63 in ENE 1.0 mph 2.0 mph 46% 0.00 in 49 W/m2
18:38 73.5 °F 52.6 °F 29.63 in ENE 1.0 mph 2.0 mph 48% 0.00 in 46 W/m2
18:44 73.6 °F 51.5 °F 29.63 in SSE 1.0 mph 4.0 mph 46% 0.00 in 42 W/m2
18:50 73.9 °F 50.6 °F 29.63 in SSE 2.0 mph 4.0 mph 44% 0.00 in 35 W/m2
18:56 74.1 °F 48.9 °F 29.63 in SSE 2.0 mph 4.0 mph 41% 0.00 in 33 W/m2
19:02 74.2 °F 49.0 °F 29.63 in SSE 2.0 mph 2.0 mph 41% 0.00 in 33 W/m2
19:08 74.2 °F 49.0 °F 29.63 in SSE 2.0 mph 2.0 mph 41% 0.00 in 35 W/m2
19:14 74.0 °F 48.1 °F 29.63 in SE 3.0 mph 6.0 mph 40% 0.00 in 37 W/m2
19:20 74.0 °F 46.8 °F 29.63 in SE 4.0 mph 4.0 mph 38% 0.00 in 30 W/m2
19:26 73.9 °F 48.1 °F 29.64 in SE 3.0 mph 4.0 mph 40% 0.00 in 39 W/m2
19:32 73.6 °F 47.8 °F 29.64 in East 1.0 mph 2.0 mph 40% 0.00 in 46 W/m2
19:38 73.3 °F 48.2 °F 29.64 in East 1.0 mph 2.0 mph 41% 0.00 in 37 W/m2
19:44 72.8 °F 48.4 °F 29.64 in East 1.0 mph 1.0 mph 42% 0.00 in 21 W/m2
19:50 71.9 °F 49.4 °F 29.63 in Calm   3.0 mph 45% 0.00 in 19 W/m2
19:56 71.3 °F 50.6 °F 29.64 in ENE 1.0 mph 3.0 mph 48% 0.00 in 18 W/m2
20:02 70.8 °F 50.7 °F 29.64 in East 2.0 mph 3.0 mph 49% 0.00 in 14 W/m2
20:08 70.7 °F 50.6 °F 29.64 in ENE 1.0 mph 3.0 mph 49% 0.00 in 11 W/m2
20:14 70.6 °F 50.5 °F 29.64 in NE 1.0 mph 5.0 mph 49% 0.00 in 9 W/m2
20:20 70.5 °F 49.9 °F 29.64 in ESE 1.0 mph 2.0 mph 48% 0.00 in 7 W/m2
20:26 70.2 °F 50.1 °F 29.64 in East 1.0 mph 2.0 mph 49% 0.00 in 0 W/m2
20:32 69.7 °F 50.8 °F 29.64 in SE 1.0 mph 1.0 mph 51% 0.00 in 0 W/m2
20:38 69.3 °F 50.4 °F 29.64 in East 1.0 mph 1.0 mph 51% 0.00 in 0 W/m2
20:44 68.8 °F 51.0 °F 29.64 in East 1.0 mph 1.0 mph 53% 0.00 in 0 W/m2
20:50 68.3 °F 50.5 °F 29.64 in Calm   2.0 mph 53% 0.00 in 0 W/m2
20:56 67.9 °F 50.6 °F 29.64 in Calm   2.0 mph 54% 0.00 in 0 W/m2
21:02 67.8 °F 50.5 °F 29.64 in East 1.0 mph 1.0 mph 54% 0.00 in 0 W/m2
21:08 67.7 °F 50.5 °F 29.65 in SE 1.0 mph 4.0 mph 54% 0.00 in 0 W/m2
21:14 67.6 °F 50.9 °F 29.65 in SE 1.0 mph 1.0 mph 55% 0.00 in 0 W/m2
21:20 67.2 °F 50.0 °F 29.65 in SE 1.0 mph 1.0 mph 54% 0.00 in 0 W/m2
21:26 66.7 °F 51.5 °F 29.65 in SSE 1.0 mph 3.0 mph 58% 0.00 in 0 W/m2
21:32 66.5 °F 50.3 °F 29.66 in SE 1.0 mph 1.0 mph 56% 0.00 in 0 W/m2
21:38 65.9 °F 51.2 °F 29.66 in SE 1.0 mph 1.0 mph 59% 0.00 in 0 W/m2
21:44 65.4 °F 51.6 °F 29.66 in Calm   1.0 mph 61% 0.00 in 0 W/m2
21:50 64.4 °F 51.5 °F 29.66 in Calm     63% 0.00 in 0 W/m2
21:56 63.6 °F 51.2 °F 29.66 in Calm     64% 0.00 in 0 W/m2
22:02 63.2 °F 51.6 °F 29.67 in Calm   2.0 mph 66% 0.00 in 0 W/m2
22:08 63.0 °F 52.3 °F 29.66 in Calm   2.0 mph 68% 0.00 in 0 W/m2
22:14 62.8 °F 52.5 °F 29.66 in Calm     69% 0.00 in 0 W/m2
22:20 62.5 °F 52.6 °F 29.67 in Calm     70% 0.00 in 0 W/m2
22:26 62.2 °F 51.9 °F 29.67 in Calm     69% 0.00 in 0 W/m2
22:32 62.1 °F 51.8 °F 29.67 in Calm     69% 0.00 in 0 W/m2
22:38 62.0 °F 52.1 °F 29.67 in Calm     70% 0.00 in 0 W/m2
22:44 62.0 °F 52.5 °F 29.68 in Calm     71% 0.00 in 0 W/m2
22:50 62.0 °F 52.9 °F 29.68 in Calm     72% 0.00 in 0 W/m2
22:56 62.0 °F 52.9 °F 29.68 in Calm     72% 0.00 in 0 W/m2
23:02 62.2 °F 53.4 °F 29.68 in Calm     73% 0.00 in 0 W/m2
23:08 62.3 °F 53.5 °F 29.68 in Calm     73% 0.00 in 0 W/m2
23:14 62.4 °F 53.6 °F 29.68 in Calm     73% 0.00 in 0 W/m2
23:20 62.6 °F 53.8 °F 29.68 in Calm     73% 0.00 in 0 W/m2
23:26 62.6 °F 53.1 °F 29.68 in Calm   1.0 mph 71% 0.00 in 0 W/m2
23:32 62.4 °F 52.9 °F 29.68 in Calm     71% 0.00 in 0 W/m2
23:38 62.3 °F 52.0 °F 29.68 in Calm   2.0 mph 69% 0.00 in 0 W/m2
23:44 62.4 °F 52.1 °F 29.68 in Calm     69% 0.00 in 0 W/m2
23:50 62.3 °F 50.8 °F 29.68 in Calm     66% 0.00 in 0 W/m2
23:56 62.4 °F 51.3 °F 29.68 in Calm     67% 0.00 in 0 W/m2
Country Meadow, Clay, NY, USA
Compliments of Weather Underground - 2 mb